Time,TemperatureF,DewpointF,PressureIn,WindDirection,WindDirectionDegrees,WindSpeedMPH,WindSpeedGustMPH,Humidity,HourlyPrecipIn,Conditions,Clouds,dailyrainin,SoftwareType,DateUTC
2013-07-08 00:27:00,68.2,67.0,30.16,WSW,247,1.0,-999.0,97,-99.99,,,0.09,weatherlink.com 1.10,2013-07-08 04:27:00,
2013-07-08 00:42:00,67.8,67.0,30.16,West,268,0.0,-999.0,97,-99.99,,,0.21,weatherlink.com 1.10,2013-07-08 04:42:00,
2013-07-08 00:57:00,67.7,67.0,30.16,West,268,0.0,-999.0,97,-99.99,,,0.27,weatherlink.com 1.10,2013-07-08 04:57:00,
2013-07-08 01:12:00,67.9,67.0,30.15,WSW,252,0.0,-999.0,97,-99.99,,,0.34,weatherlink.com 1.10,2013-07-08 05:12:00,
2013-07-08 01:27:00,68.0,67.0,30.14,WSW,252,0.0,-999.0,97,-99.99,,,0.36,weatherlink.com 1.10,2013-07-08 05:27:00,
2013-07-08 01:42:00,68.1,67.0,30.14,WSW,252,0.0,-999.0,97,-99.99,,,0.36,weatherlink.com 1.10,2013-07-08 05:42:00,
2013-07-08 01:57:00,68.8,68.0,30.14,WSW,252,0.0,-999.0,97,-99.99,,,0.36,weatherlink.com 1.10,2013-07-08 05:57:00,
2013-07-08 02:12:00,67.9,67.0,30.14,WSW,252,0.0,-999.0,97,-99.99,,,0.36,weatherlink.com 1.10,2013-07-08 06:12:00,
2013-07-08 02:27:00,67.8,67.0,30.13,WSW,252,0.0,-999.0,97,-99.99,,,0.36,weatherlink.com 1.10,2013-07-08 06:27:00,
2013-07-08 02:42:00,68.4,68.0,30.13,WSW,252,0.0,-999.0,97,-99.99,,,0.36,weatherlink.com 1.10,2013-07-08 06:42:00,
2013-07-08 02:57:00,69.3,68.0,30.13,South,179,0.0,-999.0,95,-99.99,,,0.36,weatherlink.com 1.10,2013-07-08 06:57:00,
2013-07-08 03:12:00,69.8,68.0,30.13,South,179,0.0,-999.0,94,-99.99,,,0.36,weatherlink.com 1.10,2013-07-08 07:12:00,
2013-07-08 03:27:00,69.1,68.0,30.13,South,179,0.0,-999.0,95,-99.99,,,0.36,weatherlink.com 1.10,2013-07-08 07:27:00,
2013-07-08 03:42:00,68.5,67.0,30.13,South,181,0.0,-999.0,96,-99.99,,,0.36,weatherlink.com 1.10,2013-07-08 07:42:00,
2013-07-08 03:57:00,68.5,67.0,30.13,South,184,0.0,-999.0,96,-99.99,,,0.36,weatherlink.com 1.10,2013-07-08 07:57:00,
2013-07-08 04:12:00,69.0,68.0,30.12,SSE,167,0.0,-999.0,95,-99.99,,,0.36,weatherlink.com 1.10,2013-07-08 08:12:00,
2013-07-08 04:27:00,69.7,69.0,30.13,SSE,165,0.0,-999.0,96,-99.99,,,0.36,weatherlink.com 1.10,2013-07-08 08:27:00,
2013-07-08 04:42:00,70.3,69.0,30.13,SSE,165,0.0,-999.0,96,-99.99,,,0.36,weatherlink.com 1.10,2013-07-08 08:42:00,
2013-07-08 04:57:00,69.8,69.0,30.14,SSE,165,0.0,-999.0,96,-99.99,,,0.36,weatherlink.com 1.10,2013-07-08 08:57:00,
2013-07-08 05:12:00,69.0,68.0,30.14,SSE,165,0.0,-999.0,97,-99.99,,,0.36,weatherlink.com 1.10,2013-07-08 09:12:00,
2013-07-08 05:27:00,68.4,68.0,30.14,SSE,165,0.0,-999.0,97,-99.99,,,0.36,weatherlink.com 1.10,2013-07-08 09:27:00,
2013-07-08 05:42:00,68.4,68.0,30.15,SSE,165,0.0,-999.0,97,-99.99,,,0.36,weatherlink.com 1.10,2013-07-08 09:42:00,
2013-07-08 05:57:00,68.4,68.0,30.14,SSE,165,0.0,-999.0,98,-99.99,,,0.36,weatherlink.com 1.10,2013-07-08 09:57:00,
2013-07-08 06:12:00,68.5,68.0,30.15,SSE,165,0.0,-999.0,98,-99.99,,,0.36,weatherlink.com 1.10,2013-07-08 10:12:00,
2013-07-08 06:27:00,68.4,68.0,30.15,SW,220,0.0,-999.0,98,-99.99,,,0.36,weatherlink.com 1.10,2013-07-08 10:27:00,
2013-07-08 06:42:00,68.4,68.0,30.15,SW,220,0.0,-999.0,98,-99.99,,,0.36,weatherlink.com 1.10,2013-07-08 10:42:00,
2013-07-08 06:57:00,68.1,68.0,30.16,SW,220,0.0,-999.0,98,-99.99,,,0.36,weatherlink.com 1.10,2013-07-08 10:57:00,
2013-07-08 07:12:00,68.1,68.0,30.16,SW,220,0.0,-999.0,98,-99.99,,,0.36,weatherlink.com 1.10,2013-07-08 11:12:00,
2013-07-08 07:27:00,68.6,68.0,30.16,SW,220,0.0,-999.0,98,-99.99,,,0.36,weatherlink.com 1.10,2013-07-08 11:27:00,
2013-07-08 07:42:00,68.7,68.0,30.16,SW,220,0.0,-999.0,98,-99.99,,,0.36,weatherlink.com 1.10,2013-07-08 11:42:00,
2013-07-08 07:57:00,68.6,68.0,30.16,SW,220,0.0,-999.0,98,-99.99,,,0.36,weatherlink.com 1.10,2013-07-08 11:57:00,
2013-07-08 08:12:00,68.5,68.0,30.17,SW,220,0.0,-999.0,98,-99.99,,,0.36,weatherlink.com 1.10,2013-07-08 12:12:00,
2013-07-08 08:27:00,68.8,68.0,30.17,SW,220,0.0,-999.0,98,-99.99,,,0.36,weatherlink.com 1.10,2013-07-08 12:27:00,
2013-07-08 08:42:00,68.9,68.0,30.17,SW,216,0.0,-999.0,98,-99.99,,,0.36,weatherlink.com 1.10,2013-07-08 12:42:00,
2013-07-08 08:57:00,69.1,69.0,30.17,SW,219,0.0,-999.0,98,-99.99,,,0.36,weatherlink.com 1.10,2013-07-08 12:57:00,
2013-07-08 09:12:00,69.6,69.0,30.17,SW,219,0.0,-999.0,98,-99.99,,,0.36,weatherlink.com 1.10,2013-07-08 13:12:00,
2013-07-08 09:27:00,70.0,70.0,30.17,SW,219,0.0,-999.0,99,-99.99,,,0.36,weatherlink.com 1.10,2013-07-08 13:27:00,
2013-07-08 09:42:00,70.3,70.0,30.18,SW,219,0.0,-999.0,98,-99.99,,,0.36,weatherlink.com 1.10,2013-07-08 13:42:00,
2013-07-08 09:57:00,71.6,71.0,30.18,SW,219,0.0,-999.0,98,-99.99,,,0.36,weatherlink.com 1.10,2013-07-08 13:57:00,
2013-07-08 10:12:00,72.0,71.0,30.18,SW,219,0.0,-999.0,97,-99.99,,,0.36,weatherlink.com 1.10,2013-07-08 14:12:00,
2013-07-08 10:27:00,72.1,71.0,30.19,SW,219,0.0,-999.0,97,-99.99,,,0.36,weatherlink.com 1.10,2013-07-08 14:27:00,
2013-07-08 10:42:00,72.9,72.0,30.19,SW,219,0.0,-999.0,96,-99.99,,,0.36,weatherlink.com 1.10,2013-07-08 14:42:00,
2013-07-08 10:57:00,73.4,72.0,30.18,SW,224,0.0,-999.0,95,-99.99,,,0.36,weatherlink.com 1.10,2013-07-08 14:57:00,
2013-07-08 11:12:00,73.6,72.0,30.19,WSW,237,0.0,-999.0,95,-99.99,,,0.36,weatherlink.com 1.10,2013-07-08 15:12:00,
2013-07-08 11:27:00,74.0,73.0,30.18,WSW,237,0.0,-999.0,95,-99.99,,,0.36,weatherlink.com 1.10,2013-07-08 15:27:00,
2013-07-08 11:42:00,74.4,73.0,30.18,WSW,258,0.0,-999.0,96,-99.99,,,0.36,weatherlink.com 1.10,2013-07-08 15:42:00,
2013-07-08 11:57:00,76.2,73.0,30.18,NW,318,0.0,-999.0,89,-99.99,,,0.36,weatherlink.com 1.10,2013-07-08 15:57:00,
2013-07-08 12:12:00,76.5,73.0,30.18,WSW,240,0.0,-999.0,89,-99.99,,,0.36,weatherlink.com 1.10,2013-07-08 16:12:00,
2013-07-08 12:27:00,76.7,74.0,30.18,WNW,291,0.0,-999.0,92,-99.99,,,0.36,weatherlink.com 1.10,2013-07-08 16:27:00,
2013-07-08 12:42:00,77.4,74.0,30.18,West,272,0.0,-999.0,89,-99.99,,,0.36,weatherlink.com 1.10,2013-07-08 16:42:00,
2013-07-08 13:12:00,78.2,74.0,30.17,SSE,168,0.0,-999.0,87,-99.99,,,0.36,weatherlink.com 1.10,2013-07-08 17:12:00,
2013-07-08 13:27:00,79.3,75.0,30.17,WSW,239,0.0,-999.0,85,-99.99,,,0.36,weatherlink.com 1.10,2013-07-08 17:27:00,
2013-07-08 13:42:00,78.0,72.0,30.16,West,271,0.0,-999.0,82,-99.99,,,0.36,weatherlink.com 1.10,2013-07-08 17:42:00,
2013-07-08 13:57:00,79.1,74.0,30.16,NNE,26,0.0,-999.0,85,-99.99,,,0.36,weatherlink.com 1.10,2013-07-08 17:57:00,
2013-07-08 14:27:00,79.9,73.0,30.15,SSW,205,0.0,-999.0,80,-99.99,,,0.36,weatherlink.com 1.10,2013-07-08 18:27:00,
2013-07-08 14:42:00,81.2,73.0,30.14,SSW,205,1.0,-999.0,77,-99.99,,,0.36,weatherlink.com 1.10,2013-07-08 18:42:00,
2013-07-08 15:12:00,81.2,75.0,30.13,WNW,299,0.0,-999.0,80,-99.99,,,0.36,weatherlink.com 1.10,2013-07-08 19:12:00,
2013-07-08 15:42:00,80.3,74.0,30.12,West,280,0.0,-999.0,82,-99.99,,,0.36,weatherlink.com 1.10,2013-07-08 19:42:00,
2013-07-08 15:57:00,81.6,75.0,30.12,West,280,0.0,-999.0,81,-99.99,,,0.36,weatherlink.com 1.10,2013-07-08 19:57:00,
2013-07-08 16:12:00,79.4,72.0,30.12,West,271,0.0,-999.0,77,-99.99,,,0.36,weatherlink.com 1.10,2013-07-08 20:12:00,
2013-07-08 16:42:00,78.1,73.0,30.10,SW,225,0.0,-999.0,84,-99.99,,,0.36,weatherlink.com 1.10,2013-07-08 20:42:00,
2013-07-08 17:42:00,82.7,74.0,30.10,North,9,0.0,-999.0,75,-99.99,,,0.36,weatherlink.com 1.10,2013-07-08 21:42:00,
2013-07-08 17:57:00,81.4,73.0,30.10,NNW,334,0.0,-999.0,76,-99.99,,,0.36,weatherlink.com 1.10,2013-07-08 21:57:00,
2013-07-08 18:12:00,78.7,73.0,30.10,East,81,0.0,-999.0,83,-99.99,,,0.36,weatherlink.com 1.10,2013-07-08 22:12:00,
2013-07-08 18:27:00,78.3,73.0,30.09,East,97,0.0,-999.0,84,-99.99,,,0.36,weatherlink.com 1.10,2013-07-08 22:27:00,
2013-07-08 18:42:00,77.5,73.0,30.09,WNW,302,0.0,-999.0,85,-99.99,,,0.36,weatherlink.com 1.10,2013-07-08 22:42:00,
2013-07-08 19:12:00,76.7,73.0,30.09,WNW,302,0.0,-999.0,87,-99.99,,,0.36,weatherlink.com 1.10,2013-07-08 23:12:00,
2013-07-08 20:27:00,76.0,72.0,30.10,NE,54,0.0,-999.0,87,-99.99,,,0.36,weatherlink.com 1.10,2013-07-09 00:27:00,
2013-07-08 20:42:00,76.5,72.0,30.10,NE,54,0.0,-999.0,85,-99.99,,,0.36,weatherlink.com 1.10,2013-07-09 00:42:00,
2013-07-08 20:57:00,76.3,71.0,30.10,NE,54,0.0,-999.0,83,-99.99,,,0.36,weatherlink.com 1.10,2013-07-09 00:57:00,
2013-07-08 21:27:00,75.1,71.0,30.10,NE,54,0.0,-999.0,87,-99.99,,,0.36,weatherlink.com 1.10,2013-07-09 01:27:00,
2013-07-08 21:42:00,74.5,72.0,30.11,North,358,0.0,-999.0,90,-99.99,,,0.36,weatherlink.com 1.10,2013-07-09 01:42:00,
2013-07-08 22:12:00,73.9,71.0,30.12,North,358,0.0,-999.0,90,-99.99,,,0.36,weatherlink.com 1.10,2013-07-09 02:12:00,
2013-07-08 22:27:00,73.4,71.0,30.13,North,358,0.0,-999.0,91,-99.99,,,0.36,weatherlink.com 1.10,2013-07-09 02:27:00,
2013-07-08 22:42:00,73.1,71.0,30.13,North,358,0.0,-999.0,93,-99.99,,,0.36,weatherlink.com 1.10,2013-07-09 02:42:00,
2013-07-08 23:57:00,72.7,70.0,30.14,West,265,0.0,-999.0,91,-99.99,,,0.36,weatherlink.com 1.10,2013-07-09 03:57:00,